createdAt,value
2017-07-27T00:00:25.856Z,19.91
2017-07-27T00:01:27.098Z,19.9
2017-07-27T00:02:28.455Z,19.86
2017-07-27T00:03:29.678Z,19.88
2017-07-27T00:04:30.916Z,19.84
2017-07-27T00:05:32.173Z,19.83
2017-07-27T00:06:33.530Z,19.79
2017-07-27T00:07:34.767Z,19.87
2017-07-27T00:08:36.032Z,19.78
2017-07-27T00:09:37.262Z,19.79
2017-07-27T00:10:38.519Z,19.8
2017-07-27T00:11:39.756Z,19.83
2017-07-27T00:12:41.006Z,19.79
2017-07-27T00:13:42.253Z,19.75
2017-07-27T00:14:43.568Z,19.79
2017-07-27T00:15:44.800Z,19.79
2017-07-27T00:16:46.041Z,19.78
2017-07-27T00:17:47.289Z,19.73
2017-07-27T00:18:48.557Z,19.76
2017-07-27T00:19:49.801Z,19.75
2017-07-27T00:20:51.088Z,19.78
2017-07-27T00:21:52.296Z,19.68
2017-07-27T00:22:53.613Z,19.76
2017-07-27T00:23:54.855Z,19.7
2017-07-27T00:24:56.097Z,19.63
2017-07-27T00:25:57.607Z,19.61
2017-07-27T00:26:58.963Z,19.5
2017-07-27T00:28:00.202Z,19.58
2017-07-27T00:29:01.448Z,19.48
2017-07-27T00:30:02.691Z,19.53
2017-07-27T00:31:03.915Z,19.54
2017-07-27T00:32:05.174Z,19.55
2017-07-27T00:33:06.509Z,19.6
2017-07-27T00:34:07.744Z,19.47
2017-07-27T00:35:08.985Z,19.47
2017-07-27T00:36:10.247Z,19.43
2017-07-27T00:37:11.579Z,19.48
2017-07-27T00:38:12.826Z,19.43
2017-07-27T00:39:14.146Z,19.46
2017-07-27T00:40:15.395Z,19.35
2017-07-27T00:41:16.741Z,19.32
2017-07-27T00:42:17.898Z,19.38
2017-07-27T00:43:19.112Z,19.36
2017-07-27T00:44:20.353Z,19.4
2017-07-27T00:45:21.703Z,19.33
2017-07-27T00:46:22.922Z,19.29
2017-07-27T00:47:24.165Z,19.39
2017-07-27T00:48:25.400Z,19.24
2017-07-27T00:49:26.645Z,19.33
2017-07-27T00:50:27.868Z,19.25
2017-07-27T00:51:29.221Z,19.2
2017-07-27T00:52:30.466Z,19.29
2017-07-27T00:53:31.706Z,19.18
2017-07-27T00:54:32.968Z,19.18
2017-07-27T00:55:34.214Z,19.14
2017-07-27T00:56:35.463Z,19.23
2017-07-27T00:57:36.707Z,19.14
2017-07-27T00:58:38.032Z,19.13
2017-07-27T00:59:39.351Z,19.15
2017-07-27T01:00:40.733Z,19.17
2017-07-27T01:01:41.867Z,19.14
2017-07-27T01:02:43.107Z,19.06
2017-07-27T01:03:44.346Z,19.01
2017-07-27T01:04:45.617Z,18.98
2017-07-27T01:05:46.845Z,19.1
2017-07-27T01:06:48.083Z,19.01
2017-07-27T01:07:49.325Z,19.01
2017-07-27T01:08:50.567Z,19.05
2017-07-27T01:09:51.912Z,19.01
2017-07-27T01:10:53.168Z,19.06
2017-07-27T01:11:54.418Z,18.98
2017-07-27T01:12:55.693Z,19.02
2017-07-27T01:13:56.928Z,19.1
2017-07-27T01:14:58.165Z,18.95
2017-07-27T01:15:59.417Z,18.97
2017-07-27T01:17:00.655Z,18.97
2017-07-27T01:18:02.009Z,18.86
2017-07-27T01:19:03.253Z,18.95
2017-07-27T01:20:04.502Z,18.92
2017-07-27T01:21:05.753Z,18.95
2017-07-27T01:22:06.996Z,19.02
2017-07-27T01:23:08.392Z,18.9
2017-07-27T01:24:09.671Z,18.91
2017-07-27T01:25:10.984Z,19.02
2017-07-27T01:26:12.159Z,18.98
2017-07-27T01:27:13.413Z,18.98
2017-07-27T01:28:14.653Z,18.87
2017-07-27T01:29:15.889Z,18.94
2017-07-27T01:30:17.237Z,18.84
2017-07-27T01:31:18.463Z,18.91
2017-07-27T01:32:19.734Z,18.95
2017-07-27T01:33:20.975Z,18.97
2017-07-27T01:34:22.207Z,18.84
2017-07-27T01:35:23.504Z,18.82
2017-07-27T01:36:24.767Z,18.84
2017-07-27T01:37:26.028Z,18.91
2017-07-27T01:38:27.267Z,18.91
2017-07-27T01:39:28.512Z,18.87
2017-07-27T01:40:29.837Z,18.91
2017-07-27T01:41:31.081Z,18.87
2017-07-27T01:42:32.325Z,18.83
2017-07-27T01:43:33.554Z,18.76
2017-07-27T01:44:34.949Z,18.84
2017-07-27T01:45:36.188Z,18.83
2017-07-27T01:46:37.436Z,18.83
2017-07-27T01:47:38.676Z,18.79
2017-07-27T01:48:39.973Z,18.82
2017-07-27T01:49:41.334Z,18.94
2017-07-27T01:50:42.612Z,18.82
2017-07-27T01:51:43.836Z,18.86
2017-07-27T01:52:45.071Z,18.84
2017-07-27T01:53:46.312Z,18.83
2017-07-27T01:54:47.640Z,18.82
2017-07-27T01:55:48.878Z,18.95
2017-07-27T01:56:50.119Z,18.86
2017-07-27T01:57:51.358Z,18.82
2017-07-27T01:58:52.591Z,18.92
2017-07-27T01:59:53.846Z,18.86
2017-07-27T02:00:55.098Z,18.86
2017-07-27T02:01:56.343Z,18.82
2017-07-27T02:02:57.631Z,18.83
2017-07-27T02:03:58.877Z,18.79
2017-07-27T02:05:00.112Z,18.8
2017-07-27T02:06:01.366Z,18.82
2017-07-27T02:07:02.588Z,18.77
2017-07-27T02:08:03.827Z,18.79
2017-07-27T02:09:05.156Z,18.74
2017-07-27T02:10:06.395Z,18.72
2017-07-27T02:11:07.636Z,18.76
2017-07-27T02:12:08.877Z,18.72
2017-07-27T02:13:10.118Z,18.73
2017-07-27T02:14:11.355Z,18.74
2017-07-27T02:15:12.653Z,18.61
2017-07-27T02:16:13.889Z,18.68
2017-07-27T02:17:15.129Z,18.7
2017-07-27T02:18:16.373Z,18.57
2017-07-27T02:19:17.618Z,18.52
2017-07-27T02:20:18.845Z,18.58
2017-07-27T02:21:20.190Z,18.58
2017-07-27T02:22:21.429Z,18.59
2017-07-27T02:23:22.764Z,18.61
2017-07-27T02:24:24.007Z,18.47
2017-07-27T02:25:25.246Z,18.49
2017-07-27T02:26:26.482Z,18.43
2017-07-27T02:27:27.720Z,18.49
2017-07-27T02:28:29.021Z,18.46
2017-07-27T02:29:30.249Z,18.46
2017-07-27T02:30:31.501Z,18.39
2017-07-27T02:31:32.736Z,18.39
2017-07-27T02:32:33.977Z,18.29
2017-07-27T02:33:35.219Z,18.31
2017-07-27T02:34:36.467Z,18.27
2017-07-27T02:35:37.709Z,18.28
2017-07-27T02:36:38.939Z,18.24
2017-07-27T02:37:40.171Z,18.18
2017-07-27T02:38:41.404Z,18.22
2017-07-27T02:39:42.637Z,18.13
2017-07-27T02:40:44.010Z,18.15
2017-07-27T02:41:45.298Z,18.13
2017-07-27T02:42:46.524Z,18.12
2017-07-27T02:43:47.779Z,18.1
2017-07-27T02:44:49.023Z,18.15
2017-07-27T02:45:50.265Z,18.12
2017-07-27T02:46:51.604Z,18.15
2017-07-27T02:47:52.841Z,18.09
2017-07-27T02:48:54.078Z,18.04
2017-07-27T02:49:55.311Z,18.09
2017-07-27T02:50:56.548Z,18.04
2017-07-27T02:51:57.787Z,18.07
2017-07-27T02:52:59.059Z,18.09
2017-07-27T02:54:00.313Z,18.06
2017-07-27T02:55:01.615Z,18.06
2017-07-27T02:56:02.886Z,18.03
2017-07-27T02:57:04.087Z,18.06
2017-07-27T02:58:05.375Z,18.06
2017-07-27T02:59:06.616Z,18.02
2017-07-27T03:00:07.966Z,18.09
2017-07-27T03:01:09.231Z,18.09
2017-07-27T03:02:10.447Z,18.07
2017-07-27T03:03:11.690Z,18.06
2017-07-27T03:04:12.937Z,18.07
2017-07-27T03:05:14.212Z,18.1
2017-07-27T03:06:15.536Z,17.99
2017-07-27T03:07:16.774Z,17.97
2017-07-27T03:08:18.038Z,18.09
2017-07-27T03:09:19.264Z,18.07
2017-07-27T03:10:20.534Z,17.94
2017-07-27T03:11:21.780Z,17.97
2017-07-27T03:12:23.121Z,18.13
2017-07-27T03:13:24.363Z,18.07
2017-07-27T03:14:25.624Z,18.06
2017-07-27T03:15:26.844Z,18.06
2017-07-27T03:16:28.094Z,18.06
2017-07-27T03:17:29.349Z,18.1
2017-07-27T03:18:30.581Z,18.07
2017-07-27T03:19:31.830Z,18.03
2017-07-27T03:20:33.087Z,18.04
2017-07-27T03:21:34.339Z,18.06
2017-07-27T03:22:35.553Z,18.07
2017-07-27T03:23:36.804Z,18.15
2017-07-27T03:24:38.100Z,18.07
2017-07-27T03:25:39.371Z,18.07
2017-07-27T03:26:40.600Z,18.07
2017-07-27T03:27:41.843Z,18.07
2017-07-27T03:28:43.107Z,18.03
2017-07-27T03:29:44.323Z,18.09
2017-07-27T03:30:45.562Z,18
2017-07-27T03:31:46.803Z,17.99
2017-07-27T03:32:48.048Z,17.92
2017-07-27T03:33:49.281Z,18
2017-07-27T03:34:50.523Z,17.99
2017-07-27T03:35:51.762Z,17.97
2017-07-27T03:36:52.996Z,17.95
2017-07-27T03:37:54.245Z,17.95
2017-07-27T03:38:55.582Z,18
2017-07-27T03:39:56.823Z,17.97
2017-07-27T03:40:58.063Z,18.07
2017-07-27T03:41:59.299Z,18.06
2017-07-27T03:43:00.539Z,18.12
2017-07-27T03:44:01.799Z,18.02
2017-07-27T03:45:03.064Z,18.03
2017-07-27T03:46:04.371Z,18.06
2017-07-27T03:47:05.609Z,18.02
2017-07-27T03:48:06.847Z,18.12
2017-07-27T03:49:08.081Z,18.1
2017-07-27T03:50:09.368Z,18.13
2017-07-27T03:51:10.603Z,18.07
2017-07-27T03:52:11.860Z,18.06
2017-07-27T03:53:13.191Z,18.1
2017-07-27T03:54:14.422Z,18.1
2017-07-27T03:55:15.669Z,18.1
2017-07-27T03:56:16.909Z,18.06
2017-07-27T03:57:18.147Z,18.15
2017-07-27T03:58:19.398Z,18.15
2017-07-27T03:59:20.635Z,18.12
2017-07-27T04:00:21.885Z,18.21
2017-07-27T04:01:23.123Z,18.21
2017-07-27T04:02:24.366Z,18.18
2017-07-27T04:03:25.636Z,18.18
2017-07-27T04:04:26.882Z,18.22
2017-07-27T04:05:28.162Z,18.18
2017-07-27T04:06:29.442Z,18.22
2017-07-27T04:07:30.695Z,18.22
2017-07-27T04:08:31.930Z,18.19
2017-07-27T04:09:33.163Z,18.19
2017-07-27T04:10:34.418Z,18.22
2017-07-27T04:11:35.657Z,18.19
2017-07-27T04:12:36.902Z,18.21
2017-07-27T04:13:38.130Z,18.19
2017-07-27T04:14:39.374Z,18.24
2017-07-27T04:15:40.617Z,18.19
2017-07-27T04:16:41.837Z,18.25
2017-07-27T04:17:43.088Z,18.19
2017-07-27T04:18:44.347Z,18.21
2017-07-27T04:19:45.642Z,18.22
2017-07-27T04:20:46.949Z,18.24
2017-07-27T04:21:48.087Z,18.27
2017-07-27T04:22:49.319Z,18.25
2017-07-27T04:23:50.555Z,18.36
2017-07-27T04:24:51.821Z,18.28
2017-07-27T04:25:53.111Z,18.29
2017-07-27T04:26:54.359Z,18.36
2017-07-27T04:27:55.634Z,18.39
2017-07-27T04:28:56.850Z,18.43
2017-07-27T04:29:58.208Z,18.37
2017-07-27T04:30:59.445Z,18.37
2017-07-27T04:32:00.696Z,18.37
2017-07-27T04:33:02.045Z,18.42
2017-07-27T04:34:03.288Z,18.42
2017-07-27T04:35:04.541Z,18.34
2017-07-27T04:36:05.762Z,18.37
2017-07-27T04:37:07.001Z,18.34
2017-07-27T04:38:08.230Z,18.4
2017-07-27T04:39:09.469Z,18.47
2017-07-27T04:40:10.735Z,18.46
2017-07-27T04:41:11.949Z,18.42
2017-07-27T04:42:13.207Z,18.42
2017-07-27T04:43:14.427Z,18.42
2017-07-27T04:44:15.696Z,18.5
2017-07-27T04:45:16.944Z,18.49
2017-07-27T04:46:18.166Z,18.46
2017-07-27T04:47:19.403Z,18.47
2017-07-27T04:48:20.629Z,18.42
2017-07-27T04:49:21.875Z,18.44
2017-07-27T04:50:23.113Z,18.57
2017-07-27T04:51:24.346Z,18.54
2017-07-27T04:52:25.577Z,18.65
2017-07-27T04:53:26.828Z,18.59
2017-07-27T04:54:28.073Z,18.67
2017-07-27T04:55:29.302Z,18.7
2017-07-27T04:56:30.545Z,18.61
2017-07-27T04:57:31.804Z,18.67
2017-07-27T04:58:33.121Z,18.62
2017-07-27T04:59:34.374Z,18.67
2017-07-27T05:00:35.611Z,18.64
2017-07-27T05:01:36.851Z,18.67
2017-07-27T05:02:38.161Z,18.62
2017-07-27T05:03:39.445Z,18.68
2017-07-27T05:04:40.677Z,18.68
2017-07-27T05:05:41.906Z,18.65
2017-07-27T05:06:43.147Z,18.68
2017-07-27T05:07:44.384Z,18.72
2017-07-27T05:08:45.637Z,18.74
2017-07-27T05:09:46.874Z,18.72
2017-07-27T05:10:48.140Z,18.73
2017-07-27T05:11:49.392Z,18.84
2017-07-27T05:12:50.619Z,18.99
2017-07-27T05:13:51.898Z,19.01
2017-07-27T05:14:53.121Z,19.08
2017-07-27T05:15:54.356Z,19.1
2017-07-27T05:16:55.625Z,19.21
2017-07-27T05:17:56.844Z,19.24
2017-07-27T05:18:58.099Z,19.32
2017-07-27T05:19:59.351Z,19.29
2017-07-27T05:21:00.595Z,19.35
2017-07-27T05:22:01.850Z,19.36
2017-07-27T05:23:03.151Z,19.36
2017-07-27T05:24:04.410Z,19.5
2017-07-27T05:25:05.689Z,19.53
2017-07-27T05:26:06.942Z,19.6
2017-07-27T05:27:08.188Z,19.73
2017-07-27T05:28:09.450Z,19.86
2017-07-27T05:29:10.685Z,20.1
2017-07-27T05:30:12.022Z,20.31
2017-07-27T05:31:13.360Z,20.47
2017-07-27T05:32:14.602Z,20.39
2017-07-27T05:33:15.994Z,20.39
2017-07-27T05:34:17.230Z,20.42
2017-07-27T05:35:18.480Z,20.43
2017-07-27T05:36:19.748Z,20.35
2017-07-27T05:37:21.012Z,20.49
2017-07-27T05:38:22.249Z,20.58
2017-07-27T05:39:23.485Z,20.59
2017-07-27T05:40:24.723Z,20.65
2017-07-27T05:41:26.001Z,20.77
2017-07-27T05:42:27.261Z,20.69
2017-07-27T05:43:28.531Z,20.74
2017-07-27T05:44:29.781Z,20.71
2017-07-27T05:45:31.026Z,20.64
2017-07-27T05:46:32.261Z,20.56
2017-07-27T05:47:33.518Z,20.64
2017-07-27T05:48:34.786Z,20.59
2017-07-27T05:49:36.021Z,20.62
2017-07-27T05:50:37.367Z,20.53
2017-07-27T05:51:38.602Z,20.74
2017-07-27T05:52:39.853Z,20.76
2017-07-27T05:53:41.104Z,20.98
2017-07-27T05:54:42.461Z,21.14
2017-07-27T05:55:43.768Z,21.35
2017-07-27T05:56:45.021Z,21.51
2017-07-27T05:57:46.250Z,21.63
2017-07-27T05:58:47.493Z,21.81
2017-07-27T05:59:48.726Z,21.79
2017-07-27T06:00:49.974Z,21.69
2017-07-27T06:01:51.240Z,21.92
2017-07-27T06:02:52.477Z,21.83
2017-07-27T06:03:53.712Z,21.85
2017-07-27T06:04:54.935Z,22.04
2017-07-27T06:05:56.167Z,22.01
2017-07-27T06:06:57.431Z,22.01
2017-07-27T06:07:58.734Z,21.99
2017-07-27T06:08:59.972Z,22.1
2017-07-27T06:10:01.218Z,22.12
2017-07-27T06:11:02.459Z,22.23
2017-07-27T06:12:03.699Z,22.28
2017-07-27T06:13:04.936Z,22.17
2017-07-27T06:14:06.202Z,22.07
2017-07-27T06:15:07.554Z,22.1
2017-07-27T06:16:08.789Z,22.04
2017-07-27T06:17:10.043Z,22.09
2017-07-27T06:18:11.290Z,22.06
2017-07-27T06:19:12.537Z,22.01
2017-07-27T06:20:13.783Z,22.04
2017-07-27T06:21:15.128Z,22.06
2017-07-27T06:22:16.387Z,21.76
2017-07-27T06:23:17.704Z,21.83
2017-07-27T06:24:18.945Z,21.83
2017-07-27T06:25:20.192Z,21.88
2017-07-27T06:26:21.486Z,21.9
2017-07-27T06:27:22.736Z,21.81
2017-07-27T06:28:24.001Z,21.78
2017-07-27T06:29:25.242Z,21.72
2017-07-27T06:30:26.478Z,21.69
2017-07-27T06:31:27.754Z,21.66
2017-07-27T06:32:28.989Z,21.74
2017-07-27T06:33:30.245Z,21.75
2017-07-27T06:34:31.623Z,21.81
2017-07-27T06:35:32.878Z,21.98
2017-07-27T06:36:34.145Z,22.04
2017-07-27T06:37:35.384Z,22.17
2017-07-27T06:38:36.615Z,22.34
2017-07-27T06:39:37.922Z,22.52
2017-07-27T06:40:39.330Z,22.78
2017-07-27T06:41:40.480Z,23.11
2017-07-27T06:42:41.731Z,23.79
2017-07-27T06:43:43.008Z,24.37
2017-07-27T06:44:44.250Z,24.9
2017-07-27T06:45:45.487Z,25.34
2017-07-27T06:46:46.725Z,25.75
2017-07-27T06:47:48.021Z,26.2
2017-07-27T06:48:49.259Z,26.32
2017-07-27T06:49:50.496Z,26.39
2017-07-27T06:50:51.819Z,26.31
2017-07-27T06:51:53.067Z,26.29
2017-07-27T06:52:54.315Z,26.11
2017-07-27T06:53:55.554Z,25.87
2017-07-27T06:54:56.788Z,25.83
2017-07-27T06:55:58.033Z,25.75
2017-07-27T06:56:59.288Z,25.82
2017-07-27T06:58:00.535Z,25.9
2017-07-27T06:59:01.816Z,25.89
2017-07-27T07:00:03.072Z,25.82
2017-07-27T07:01:04.318Z,25.64
2017-07-27T07:02:05.568Z,25.56
2017-07-27T07:03:06.816Z,25.54
2017-07-27T07:04:08.068Z,25.32
2017-07-27T07:05:09.351Z,25.06
2017-07-27T07:06:10.635Z,24.77
2017-07-27T07:07:11.956Z,24.44
2017-07-27T07:08:13.223Z,24.35
2017-07-27T07:09:14.466Z,24.19
2017-07-27T07:10:15.823Z,24.07
2017-07-27T07:11:17.062Z,23.95
2017-07-27T07:12:18.307Z,23.85
2017-07-27T07:13:19.632Z,23.82
2017-07-27T07:14:20.997Z,23.75
2017-07-27T07:15:22.236Z,23.68
2017-07-27T07:16:23.485Z,23.65
2017-07-27T07:17:24.762Z,23.71
2017-07-27T07:18:26.019Z,23.67
2017-07-27T07:19:27.258Z,23.52
2017-07-27T07:20:28.502Z,23.5
2017-07-27T07:21:29.733Z,23.49
2017-07-27T07:22:30.980Z,23.64
2017-07-27T07:23:32.220Z,23.68
2017-07-27T07:24:33.488Z,23.71
2017-07-27T07:25:34.755Z,23.64
2017-07-27T07:26:36.030Z,23.68
2017-07-27T07:27:37.275Z,23.71
2017-07-27T07:28:38.516Z,23.68
2017-07-27T07:29:39.763Z,23.64
2017-07-27T07:30:41.021Z,23.6
2017-07-27T07:31:42.271Z,23.57
2017-07-27T07:32:43.519Z,23.52
2017-07-27T07:33:44.777Z,23.62
2017-07-27T07:34:46.048Z,23.65
2017-07-27T07:35:47.316Z,23.53
2017-07-27T07:36:48.543Z,23.61
2017-07-27T07:37:49.829Z,23.72
2017-07-27T07:38:51.085Z,23.65
2017-07-27T07:39:52.339Z,23.72
2017-07-27T07:40:53.582Z,23.77
2017-07-27T07:41:54.858Z,23.72
2017-07-27T07:42:56.085Z,23.8
2017-07-27T07:43:57.325Z,23.89
2017-07-27T07:44:58.562Z,23.85
2017-07-27T07:45:59.809Z,24.02
2017-07-27T07:47:01.068Z,24.16
2017-07-27T07:48:02.327Z,24.29
2017-07-27T07:49:03.574Z,24.31
2017-07-27T07:50:04.854Z,24.61
2017-07-27T07:51:06.132Z,24.83
2017-07-27T07:52:07.364Z,25
2017-07-27T07:53:08.614Z,25.05
2017-07-27T07:54:09.903Z,25.19
2017-07-27T07:55:11.149Z,25.47
2017-07-27T07:56:12.455Z,25.77
2017-07-27T07:57:13.696Z,26.11
2017-07-27T07:58:14.968Z,26.24
2017-07-27T07:59:16.196Z,26.54
2017-07-27T08:00:17.448Z,26.58
2017-07-27T08:01:18.688Z,26.52
2017-07-27T08:02:19.953Z,26.62
2017-07-27T08:03:21.201Z,26.61
2017-07-27T08:04:22.480Z,26.76
2017-07-27T08:05:23.779Z,26.92
2017-07-27T08:06:25.034Z,27.02
2017-07-27T08:07:26.281Z,26.96
2017-07-27T08:08:27.567Z,26.72
2017-07-27T08:09:28.850Z,26.37
2017-07-27T08:10:30.134Z,26.31
2017-07-27T08:11:31.373Z,26.06
2017-07-27T08:12:32.616Z,25.89
2017-07-27T08:13:33.957Z,25.74
2017-07-27T08:14:35.205Z,25.67
2017-07-27T08:15:36.451Z,25.61
2017-07-27T08:16:37.756Z,25.46
2017-07-27T08:17:39.003Z,25.31
2017-07-27T08:18:40.232Z,25.16
2017-07-27T08:19:41.479Z,25.24
2017-07-27T08:20:42.729Z,25.22
2017-07-27T08:21:43.966Z,25.07
2017-07-27T08:22:45.232Z,24.98
2017-07-27T08:23:46.505Z,25.24
2017-07-27T08:24:47.748Z,25.24
2017-07-27T08:25:48.993Z,25.31
2017-07-27T08:26:50.366Z,25.39
2017-07-27T08:27:51.585Z,25.74
2017-07-27T08:28:52.826Z,26.04
2017-07-27T08:29:54.100Z,26.72
2017-07-27T08:30:55.341Z,27.36
2017-07-27T08:31:56.585Z,27.82
2017-07-27T08:32:57.843Z,28.22
2017-07-27T08:33:59.179Z,28.58
2017-07-27T08:35:00.451Z,28.8
2017-07-27T08:36:01.790Z,28.91
2017-07-27T08:37:03.034Z,29.29
2017-07-27T08:38:04.285Z,29.79
2017-07-27T08:39:05.584Z,30.24
2017-07-27T08:40:06.840Z,30.67
2017-07-27T08:41:08.132Z,30.65
2017-07-27T08:42:09.400Z,30.84
2017-07-27T08:43:10.626Z,30.89
2017-07-27T08:44:11.884Z,31.01
2017-07-27T08:45:13.131Z,30.81
2017-07-27T08:46:14.455Z,30.99
2017-07-27T08:47:15.794Z,31.17
2017-07-27T08:48:17.119Z,31.13
2017-07-27T08:49:18.332Z,31.27
2017-07-27T08:50:19.572Z,31.57
2017-07-27T08:51:20.819Z,31.92
2017-07-27T08:52:22.094Z,31.99
2017-07-27T08:53:23.353Z,31.76
2017-07-27T08:54:24.643Z,31.46
2017-07-27T08:55:25.962Z,31.43
2017-07-27T08:56:27.218Z,31.3
2017-07-27T08:57:28.479Z,31.12
2017-07-27T08:58:29.818Z,30.91
2017-07-27T08:59:31.063Z,30.38
2017-07-27T09:00:32.306Z,30.05
2017-07-27T09:01:33.559Z,29.72
2017-07-27T09:02:34.812Z,29.34
2017-07-27T09:03:36.044Z,28.58
2017-07-27T09:04:37.326Z,28.06
2017-07-27T09:05:38.603Z,27.47
2017-07-27T09:06:39.884Z,27.04
2017-07-27T09:07:41.181Z,26.76
2017-07-27T09:08:42.424Z,26.57
2017-07-27T09:09:43.723Z,26.27
2017-07-27T09:10:44.951Z,25.97
2017-07-27T09:11:46.198Z,25.99
2017-07-27T09:12:47.457Z,26.01
2017-07-27T09:13:48.705Z,26.2
2017-07-27T09:14:49.952Z,26.74
2017-07-27T09:15:51.197Z,27.28
2017-07-27T09:16:52.450Z,28.07
2017-07-27T09:17:53.842Z,28.72
2017-07-27T09:18:55.082Z,29.31
2017-07-27T09:19:56.332Z,29.56
2017-07-27T09:20:57.586Z,29.68
2017-07-27T09:21:58.838Z,29.82
2017-07-27T09:23:00.099Z,30.38
2017-07-27T09:24:01.350Z,31.05
2017-07-27T09:25:02.687Z,31.43
2017-07-27T09:26:03.946Z,31.42
2017-07-27T09:27:05.213Z,31.04
2017-07-27T09:28:06.444Z,30.91
2017-07-27T09:29:07.799Z,31.24
2017-07-27T09:30:09.057Z,31.54
2017-07-27T09:31:10.301Z,31.98
2017-07-27T09:32:11.536Z,32.18
2017-07-27T09:33:12.779Z,32.91
2017-07-27T09:34:14.030Z,33.51
2017-07-27T09:35:15.357Z,34.24
2017-07-27T09:36:16.638Z,35.1
2017-07-27T09:37:17.935Z,35.58
2017-07-27T09:38:19.190Z,36.29
2017-07-27T09:39:20.450Z,36.61
2017-07-27T09:40:21.685Z,36.63
2017-07-27T09:41:22.944Z,36.52
2017-07-27T09:42:24.280Z,36.2
2017-07-27T09:43:25.622Z,36.3
2017-07-27T09:44:26.908Z,36.41
2017-07-27T09:45:28.158Z,35.67
2017-07-27T09:46:29.439Z,35.26
2017-07-27T09:47:30.740Z,34.92
2017-07-27T09:48:32.116Z,34.96
2017-07-27T09:49:33.367Z,34.74
2017-07-27T09:50:34.610Z,35.39
2017-07-27T09:51:35.853Z,36.03
2017-07-27T09:52:37.101Z,36.48
2017-07-27T09:53:38.355Z,36.7
2017-07-27T09:54:39.646Z,37.01
2017-07-27T09:55:40.888Z,37.24
2017-07-27T09:56:42.217Z,37.85
2017-07-27T09:57:43.474Z,37.85
2017-07-27T09:58:44.719Z,38.08
2017-07-27T09:59:46.006Z,38.34
2017-07-27T10:00:47.259Z,38.03
2017-07-27T10:01:48.550Z,38.23
2017-07-27T10:02:49.796Z,38.14
2017-07-27T10:03:51.048Z,37.93
2017-07-27T10:04:52.305Z,38.22
2017-07-27T10:05:53.560Z,38.01
2017-07-27T10:06:54.911Z,37.81
2017-07-27T10:07:56.178Z,37.5
2017-07-27T10:08:57.432Z,36.73
2017-07-27T10:09:58.678Z,35.62
2017-07-27T10:10:59.924Z,34.58
2017-07-27T10:12:01.176Z,33.76
2017-07-27T10:13:02.433Z,33.03
2017-07-27T10:14:03.718Z,32.11
2017-07-27T10:15:04.999Z,31.73
2017-07-27T10:16:06.261Z,31.49
2017-07-27T10:17:07.491Z,30.83
2017-07-27T10:18:08.738Z,30.87
2017-07-27T10:19:10.004Z,31.5
2017-07-27T10:20:11.407Z,31.95
2017-07-27T10:21:12.545Z,31.79
2017-07-27T10:22:13.783Z,31.7
2017-07-27T10:23:15.034Z,31.43
2017-07-27T10:24:16.314Z,31.15
2017-07-27T10:25:17.562Z,31.21
2017-07-27T10:26:18.809Z,31.13
2017-07-27T10:27:20.094Z,31.36
2017-07-27T10:28:21.341Z,31.79
2017-07-27T10:29:22.589Z,31.96
2017-07-27T10:30:23.881Z,32.17
2017-07-27T10:31:25.108Z,32.03
2017-07-27T10:32:26.375Z,32.13
2017-07-27T10:33:27.733Z,32.11
2017-07-27T10:34:29.045Z,32.17
2017-07-27T10:35:30.292Z,32.35
2017-07-27T10:36:31.557Z,32.47
2017-07-27T10:37:32.814Z,32.67
2017-07-27T10:38:34.183Z,32.69
2017-07-27T10:39:35.419Z,32.67
2017-07-27T10:40:36.667Z,32.79
2017-07-27T10:41:37.951Z,32.79
2017-07-27T10:42:39.197Z,32.47
2017-07-27T10:43:40.455Z,31.88
2017-07-27T10:44:41.714Z,31.36
2017-07-27T10:45:42.962Z,30.83
2017-07-27T10:46:44.213Z,30.38
2017-07-27T10:47:45.471Z,30.07
2017-07-27T10:48:46.730Z,30.02
2017-07-27T10:49:48.143Z,30.11
2017-07-27T10:50:49.384Z,30.09
2017-07-27T10:51:50.635Z,30.34
2017-07-27T10:52:51.877Z,30.45
2017-07-27T10:53:53.122Z,30.38
2017-07-27T10:54:54.385Z,30.38
2017-07-27T10:55:55.635Z,30.33
2017-07-27T10:56:56.884Z,30.15
2017-07-27T10:57:58.131Z,29.82
2017-07-27T10:58:59.367Z,29.68
2017-07-27T11:00:00.620Z,29.5
2017-07-27T11:01:01.932Z,29.35
2017-07-27T11:02:03.177Z,29.44
2017-07-27T11:03:04.457Z,29.26
2017-07-27T11:04:05.703Z,29.16
2017-07-27T11:05:06.966Z,29.23
2017-07-27T11:06:08.198Z,29.07
2017-07-27T11:07:09.434Z,29.03
2017-07-27T11:08:10.703Z,28.8
2017-07-27T11:09:11.939Z,28.77
2017-07-27T11:10:13.175Z,28.59
2017-07-27T11:11:14.420Z,28.47
2017-07-27T11:12:15.669Z,28.22
2017-07-27T11:13:16.912Z,28.11
2017-07-27T11:14:18.147Z,27.98
2017-07-27T11:15:19.443Z,27.74
2017-07-27T11:16:20.699Z,27.61
2017-07-27T11:17:21.948Z,27.53
2017-07-27T11:18:23.210Z,27.61
2017-07-27T11:19:24.432Z,27.67
2017-07-27T11:20:25.718Z,27.69
2017-07-27T11:21:26.951Z,27.58
2017-07-27T11:22:28.235Z,27.48
2017-07-27T11:23:29.557Z,27.43
2017-07-27T11:24:30.807Z,27.42
2017-07-27T11:25:32.057Z,27.46
2017-07-27T11:26:33.311Z,27.39
2017-07-27T11:27:34.577Z,27.41
2017-07-27T11:28:35.875Z,27.33
2017-07-27T11:29:37.126Z,27.46
2017-07-27T11:30:38.367Z,27.61
2017-07-27T11:31:39.616Z,27.76
2017-07-27T11:32:40.855Z,27.64
2017-07-27T11:33:42.137Z,27.57
2017-07-27T11:34:43.514Z,27.43
2017-07-27T11:35:44.745Z,27.47
2017-07-27T11:36:45.989Z,27.42
2017-07-27T11:37:47.229Z,27.61
2017-07-27T11:38:48.474Z,27.71
2017-07-27T11:39:49.739Z,27.8
2017-07-27T11:40:50.977Z,27.88
2017-07-27T11:41:52.284Z,27.95
2017-07-27T11:42:53.540Z,28.13
2017-07-27T11:43:54.793Z,28.11
2017-07-27T11:44:56.057Z,28.11
2017-07-27T11:45:57.319Z,28.07
2017-07-27T11:46:58.663Z,28.03
2017-07-27T11:47:59.895Z,27.88
2017-07-27T11:49:01.159Z,27.76
2017-07-27T11:50:02.387Z,27.73
2017-07-27T11:51:03.627Z,27.76
2017-07-27T11:52:04.890Z,27.66
2017-07-27T11:53:06.124Z,27.76
2017-07-27T11:54:07.391Z,27.8
2017-07-27T11:55:08.696Z,27.74
2017-07-27T11:56:09.947Z,27.94
2017-07-27T11:57:11.196Z,28.04
2017-07-27T11:58:12.482Z,28.09
2017-07-27T11:59:13.735Z,28.04
2017-07-27T12:00:14.986Z,28.06
2017-07-27T12:01:16.254Z,28.17
2017-07-27T12:02:17.495Z,28.33
2017-07-27T12:03:18.726Z,28.58
2017-07-27T12:04:20.042Z,28.58
2017-07-27T12:05:21.283Z,28.58
2017-07-27T12:06:22.528Z,28.59
2017-07-27T12:07:23.809Z,28.44
2017-07-27T12:08:25.143Z,28.23
2017-07-27T12:09:26.388Z,28.25
2017-07-27T12:10:27.637Z,27.92
2017-07-27T12:11:28.884Z,27.43
2017-07-27T12:12:30.238Z,27.26
2017-07-27T12:13:31.497Z,27.11
2017-07-27T12:14:32.740Z,27.05
2017-07-27T12:15:33.989Z,27.09
2017-07-27T12:16:35.231Z,27.21
2017-07-27T12:17:36.473Z,27.23
2017-07-27T12:18:37.753Z,27.38
2017-07-27T12:19:38.992Z,27.5
2017-07-27T12:20:40.263Z,27.66
2017-07-27T12:21:41.493Z,27.77
2017-07-27T12:22:42.740Z,27.85
2017-07-27T12:23:44.075Z,28.03
2017-07-27T12:24:45.320Z,28.17
2017-07-27T12:25:46.608Z,28.09
2017-07-27T12:26:47.842Z,28.16
2017-07-27T12:27:49.089Z,28.1
2017-07-27T12:28:50.346Z,27.79
2017-07-27T12:29:51.719Z,27.84
2017-07-27T12:30:53.010Z,27.69
2017-07-27T12:31:54.261Z,27.69
2017-07-27T12:32:55.510Z,27.77
2017-07-27T12:33:56.754Z,27.71
2017-07-27T12:34:58.012Z,27.77
2017-07-27T12:35:59.266Z,27.76
2017-07-27T12:37:00.525Z,27.76
2017-07-27T12:38:01.833Z,28.03
2017-07-27T12:39:03.110Z,28.22
2017-07-27T12:40:04.353Z,28.43
2017-07-27T12:41:05.619Z,28.59
2017-07-27T12:42:06.839Z,28.69
2017-07-27T12:43:08.107Z,28.72
2017-07-27T12:44:09.559Z,28.6
2017-07-27T12:45:10.796Z,28.48
2017-07-27T12:46:12.040Z,28.17
2017-07-27T12:47:13.302Z,27.98
2017-07-27T12:48:14.578Z,28.01
2017-07-27T12:49:15.911Z,28.03
2017-07-27T12:50:17.156Z,27.86
2017-07-27T12:51:18.469Z,27.89
2017-07-27T12:52:19.712Z,27.92
2017-07-27T12:53:20.955Z,27.88
2017-07-27T12:54:22.215Z,27.98
2017-07-27T12:55:23.752Z,28.1
2017-07-27T12:56:24.936Z,28.44
2017-07-27T12:57:26.227Z,28.56
2017-07-27T12:58:27.475Z,28.53
2017-07-27T12:59:28.725Z,28.44
2017-07-27T13:00:29.994Z,28.31
2017-07-27T13:01:31.237Z,28.38
2017-07-27T13:02:32.496Z,28.44
2017-07-27T13:03:33.747Z,28.43
2017-07-27T13:04:34.996Z,28.36
2017-07-27T13:05:36.245Z,28.32
2017-07-27T13:06:37.503Z,28.38
2017-07-27T13:07:38.763Z,28.31
2017-07-27T13:08:40.101Z,27.92
2017-07-27T13:09:41.351Z,27.77
2017-07-27T13:10:42.589Z,27.46